createdAt,value
2019-05-07T00:00:16.785Z,3.73
2019-05-07T00:06:16.781Z,3.57
2019-05-07T00:12:16.782Z,3.47
2019-05-07T00:18:16.810Z,3.45
2019-05-07T00:24:16.783Z,3.64
2019-05-07T00:30:16.761Z,3.72
2019-05-07T00:36:17.209Z,3.57
2019-05-07T00:42:16.774Z,3.34
2019-05-07T00:48:16.796Z,3.24
2019-05-07T00:54:16.782Z,3.14
2019-05-07T01:00:16.761Z,3.02
2019-05-07T01:06:16.807Z,2.81
2019-05-07T01:12:16.811Z,2.67
2019-05-07T01:18:16.799Z,2.60
2019-05-07T01:24:16.784Z,2.45
2019-05-07T01:30:16.824Z,2.69
2019-05-07T01:36:16.899Z,2.73
2019-05-07T01:42:16.823Z,2.63
2019-05-07T01:48:16.798Z,2.48
2019-05-07T01:54:16.911Z,2.35
2019-05-07T02:00:16.819Z,2.33
2019-05-07T02:06:16.834Z,2.18
2019-05-07T02:12:16.824Z,2.00
2019-05-07T02:18:16.802Z,1.87
2019-05-07T02:24:16.793Z,1.76
2019-05-07T02:30:16.798Z,1.66
2019-05-07T02:36:16.850Z,1.46
2019-05-07T02:42:16.850Z,1.27
2019-05-07T02:48:16.815Z,1.27
2019-05-07T02:54:16.891Z,1.24
2019-05-07T03:00:19.098Z,1.07
2019-05-07T03:06:16.938Z,1.15
2019-05-07T03:12:16.835Z,1.12
2019-05-07T03:18:18.990Z,1.23
2019-05-07T03:24:16.849Z,1.30
2019-05-07T03:30:17.495Z,1.16
2019-05-07T03:36:17.501Z,1.12
2019-05-07T03:42:16.844Z,0.96
2019-05-07T03:48:16.895Z,0.93
2019-05-07T03:54:16.853Z,0.97
2019-05-07T04:00:16.835Z,0.89
2019-05-07T04:06:17.861Z,0.80
2019-05-07T04:12:16.861Z,0.78
2019-05-07T04:18:16.860Z,0.78
2019-05-07T04:24:16.851Z,0.76
2019-05-07T04:30:17.931Z,0.93
2019-05-07T04:36:16.873Z,1.11
2019-05-07T04:42:16.864Z,1.36
2019-05-07T04:48:16.888Z,1.56
2019-05-07T04:54:16.856Z,1.82
2019-05-07T05:00:16.878Z,2.18
2019-05-07T05:06:16.902Z,2.51
2019-05-07T05:12:16.898Z,2.80
2019-05-07T05:18:16.954Z,3.08
2019-05-07T05:24:16.885Z,3.44
2019-05-07T05:30:16.903Z,3.89
2019-05-07T05:36:16.880Z,4.41
2019-05-07T05:42:16.904Z,5.06
2019-05-07T05:48:16.922Z,5.64
2019-05-07T05:54:17.022Z,6.01
2019-05-07T06:00:16.899Z,6.22
2019-05-07T06:06:16.892Z,6.24
2019-05-07T06:12:17.048Z,6.41
2019-05-07T06:18:21.078Z,6.71
2019-05-07T06:24:16.909Z,7.63
2019-05-07T06:30:17.959Z,8.60
2019-05-07T06:36:16.931Z,9.11
2019-05-07T06:42:17.030Z,9.36
2019-05-07T06:48:33.555Z,9.46
2019-05-07T06:54:16.916Z,9.42
2019-05-07T07:00:16.937Z,8.89
2019-05-07T07:06:16.990Z,9.16
2019-05-07T07:12:17.082Z,10.17
2019-05-07T07:18:16.951Z,10.38
2019-05-07T07:24:16.947Z,10.14
2019-05-07T07:30:17.068Z,10.36
2019-05-07T07:36:16.990Z,11.20
2019-05-07T07:42:16.929Z,12.65
2019-05-07T07:48:16.952Z,12.89
2019-05-07T07:54:16.977Z,13.41
2019-05-07T08:00:16.920Z,13.11
2019-05-07T08:06:16.978Z,14.10
2019-05-07T08:12:16.948Z,14.22
2019-05-07T08:18:16.957Z,14.40
2019-05-07T08:24:16.949Z,14.26
2019-05-07T08:30:16.973Z,14.23
2019-05-07T08:36:16.968Z,14.29
2019-05-07T08:42:16.945Z,14.25
2019-05-07T08:48:17.007Z,14.39
2019-05-07T08:54:16.987Z,14.88
2019-05-07T09:00:16.986Z,15.15
2019-05-07T09:06:17.000Z,14.59
2019-05-07T09:12:17.067Z,14.23
2019-05-07T09:18:17.040Z,15.36
2019-05-07T09:24:17.362Z,16.66
2019-05-07T09:30:17.127Z,16.12
2019-05-07T09:36:17.049Z,17.30
2019-05-07T09:42:17.099Z,16.34
2019-05-07T09:48:17.039Z,17.25
2019-05-07T09:54:17.112Z,17.04
2019-05-07T10:00:17.044Z,16.56
2019-05-07T10:06:17.052Z,15.96
2019-05-07T10:12:17.053Z,17.81
2019-05-07T10:18:17.066Z,18.80
2019-05-07T10:24:17.127Z,16.84
2019-05-07T10:30:17.375Z,14.95
2019-05-07T10:36:17.217Z,15.31
2019-05-07T10:42:17.096Z,16.53
2019-05-07T10:48:17.149Z,17.84
2019-05-07T10:54:17.098Z,18.45
2019-05-07T11:00:17.096Z,18.11
2019-05-07T11:06:17.110Z,15.83
2019-05-07T11:12:17.169Z,13.58
2019-05-07T11:18:17.139Z,13.90
2019-05-07T11:24:17.111Z,14.51
2019-05-07T11:30:17.141Z,15.53
2019-05-07T11:36:17.121Z,14.90
2019-05-07T11:42:17.155Z,16.38
2019-05-07T11:48:17.137Z,15.75
2019-05-07T11:54:17.124Z,14.47
2019-05-07T12:00:17.164Z,15.57
2019-05-07T12:06:17.138Z,17.19
2019-05-07T12:12:17.187Z,18.71
2019-05-07T12:18:17.168Z,19.28
2019-05-07T12:24:17.171Z,19.97
2019-05-07T12:30:18.179Z,18.07
2019-05-07T12:36:17.195Z,17.15
2019-05-07T12:42:17.425Z,17.76
2019-05-07T12:48:17.202Z,17.13
2019-05-07T12:54:17.212Z,16.43
2019-05-07T13:00:17.199Z,17.82
2019-05-07T13:06:17.237Z,16.95
2019-05-07T13:12:17.258Z,15.83
2019-05-07T13:18:17.221Z,15.36
2019-05-07T13:24:19.211Z,15.48
2019-05-07T13:30:17.233Z,15.54
2019-05-07T13:36:17.232Z,15.39
2019-05-07T13:42:17.226Z,15.34
2019-05-07T13:48:17.321Z,15.20
2019-05-07T13:54:17.255Z,14.82
2019-05-07T14:00:17.276Z,14.54
2019-05-07T14:06:17.267Z,14.84
2019-05-07T14:12:17.258Z,14.37
2019-05-07T14:18:17.287Z,14.70
2019-05-07T14:24:17.292Z,15.48
2019-05-07T14:30:17.290Z,16.05
2019-05-07T14:36:17.308Z,16.21
2019-05-07T14:42:17.319Z,16.20
2019-05-07T14:48:17.282Z,16.45
2019-05-07T14:54:18.391Z,16.24
2019-05-07T15:00:17.288Z,16.26
2019-05-07T15:06:17.325Z,15.75
2019-05-07T15:12:17.453Z,15.74
2019-05-07T15:18:17.324Z,15.99
2019-05-07T15:24:17.281Z,15.97
2019-05-07T15:30:17.285Z,16.04
2019-05-07T15:36:17.315Z,15.91
2019-05-07T15:42:17.320Z,16.00
2019-05-07T15:48:17.348Z,15.88
2019-05-07T15:54:17.322Z,15.46
2019-05-07T16:00:17.345Z,15.17
2019-05-07T16:06:17.343Z,15.22
2019-05-07T16:12:17.340Z,14.97
2019-05-07T16:18:17.368Z,14.90
2019-05-07T16:24:17.383Z,14.99
2019-05-07T16:30:17.358Z,14.99
2019-05-07T16:36:17.374Z,15.05
2019-05-07T16:42:17.372Z,15.07
2019-05-07T16:48:17.409Z,15.05
2019-05-07T16:54:17.388Z,15.02
2019-05-07T17:00:17.351Z,14.95
2019-05-07T17:06:17.360Z,14.94
2019-05-07T17:12:17.382Z,14.87
2019-05-07T17:18:17.408Z,14.65
2019-05-07T17:24:17.384Z,14.31
2019-05-07T17:30:17.394Z,14.16
2019-05-07T17:36:17.423Z,14.03
2019-05-07T17:42:17.478Z,13.97
2019-05-07T17:48:17.403Z,13.86
2019-05-07T17:54:17.461Z,13.77
2019-05-07T18:00:17.452Z,13.67
2019-05-07T18:06:17.424Z,13.53
2019-05-07T18:12:17.427Z,13.40
2019-05-07T18:18:17.422Z,13.21
2019-05-07T18:24:19.566Z,13.06
2019-05-07T18:30:17.508Z,12.88
2019-05-07T18:36:17.487Z,12.70
2019-05-07T18:42:17.450Z,12.58
2019-05-07T18:48:17.460Z,12.34
2019-05-07T18:54:27.901Z,12.05
2019-05-07T19:00:17.479Z,11.91
2019-05-07T19:06:17.467Z,11.90
2019-05-07T19:12:17.538Z,11.76
2019-05-07T19:18:17.553Z,11.57
2019-05-07T19:24:17.493Z,11.39
2019-05-07T19:30:17.474Z,11.25
2019-05-07T19:36:17.523Z,11.02
2019-05-07T19:42:17.481Z,10.80
2019-05-07T19:48:17.585Z,10.65
2019-05-07T19:54:17.561Z,10.61
2019-05-07T20:00:17.525Z,10.53
2019-05-07T20:06:17.525Z,10.33
2019-05-07T20:12:17.503Z,10.19
2019-05-07T20:18:17.510Z,10.07
2019-05-07T20:24:17.509Z,10.03
2019-05-07T20:30:17.534Z,10.11
2019-05-07T20:36:17.537Z,10.08
2019-05-07T20:42:17.610Z,10.09
2019-05-07T20:48:17.540Z,10.27
2019-05-07T20:54:17.615Z,10.30
2019-05-07T21:00:17.546Z,10.30
2019-05-07T21:06:17.587Z,10.29
2019-05-07T21:12:17.562Z,10.31
2019-05-07T21:18:17.617Z,10.42
2019-05-07T21:24:17.628Z,10.55
2019-05-07T21:30:17.743Z,10.51
2019-05-07T21:36:17.637Z,10.31
2019-05-07T21:42:17.556Z,10.05
2019-05-07T21:48:17.653Z,9.91
2019-05-07T21:54:17.599Z,9.73
2019-05-07T22:00:17.603Z,9.40
2019-05-07T22:06:17.613Z,9.13
2019-05-07T22:12:17.663Z,8.81
2019-05-07T22:18:17.627Z,8.70
2019-05-07T22:24:17.655Z,8.56
2019-05-07T22:30:17.575Z,8.40
2019-05-07T22:36:17.558Z,8.26
2019-05-07T22:42:17.618Z,8.04
2019-05-07T22:48:17.717Z,7.88
2019-05-07T22:54:17.609Z,7.74
2019-05-07T23:00:17.606Z,7.55
2019-05-07T23:06:17.618Z,7.48
2019-05-07T23:12:17.669Z,7.38
2019-05-07T23:18:18.649Z,7.34
2019-05-07T23:24:17.634Z,7.11
2019-05-07T23:30:17.693Z,7.00
2019-05-07T23:36:17.618Z,6.90
2019-05-07T23:42:17.615Z,6.83
2019-05-07T23:48:17.619Z,6.80
2019-05-07T23:54:17.644Z,6.80
